Time;durP1;ratioP1;P1;durP2;ratioP2;P2;SDS_P1;SDS_P2;PMS_P1;PMS_P2;Temp;Humidity;BMP_temperature;BMP_pressure;BME280_temperature;BME280_humidity;BME280_pressure;Samples;Min_cycle;Max_cycle;Signal;HPM_P1;HPM_P2
2022/05/21 00:02:22;;;;;;;12.80;3.65;;;;;;;15.80;49.28;95369.56;5082411;28;20219;-62
2022/05/21 00:04:47;;;;;;;6.78;3.38;;;;;;;15.58;50.07;95357.06;5067269;28;20203;-60
2022/05/21 00:07:13;;;;;;;5.13;3.38;;;;;;;15.54;50.20;95358.41;5064268;28;20251;-65
2022/05/21 00:09:38;;;;;;;9.38;3.28;;;;;;;15.52;49.22;95363.06;5068151;28;20220;-66
2022/05/21 00:12:05;;;;;;;7.57;3.40;;;;;;;15.60;48.81;95363.00;5067439;28;20228;-66
2022/05/21 00:14:31;;;;;;;9.43;3.22;;;;;;;15.57;49.15;95363.38;5072797;28;20201;-65
2022/05/21 00:16:57;;;;;;;8.38;3.30;;;;;;;15.51;49.15;95356.94;5085788;28;20200;-61
2022/05/21 00:19:22;;;;;;;13.57;3.97;;;;;;;15.44;48.83;95369.22;5082267;28;20223;-66
2022/05/21 00:21:48;;;;;;;8.23;3.35;;;;;;;15.62;48.07;95363.66;5069001;28;20315;-67
2022/05/21 00:24:14;;;;;;;13.02;4.15;;;;;;;15.48;48.68;95361.78;5066492;28;20250;-64
2022/05/21 00:26:42;;;;;;;6.47;3.50;;;;;;;15.53;48.98;95356.75;5064737;28;20482;-61
2022/05/21 00:29:08;;;;;;;16.88;3.80;;;;;;;15.51;49.00;95350.81;5081766;28;20208;-68
2022/05/21 00:31:33;;;;;;;9.85;4.13;;;;;;;15.37;49.06;95347.06;5066532;28;20320;-61
2022/05/21 00:34:00;;;;;;;10.77;3.58;;;;;;;15.32;48.50;95354.72;5068738;28;20229;-67
2022/05/21 00:36:25;;;;;;;9.75;3.95;;;;;;;15.31;48.55;95343.28;5048324;28;20268;-61
2022/05/21 00:38:51;;;;;;;7.75;3.70;;;;;;;15.28;48.72;95345.44;5061643;28;20314;-65
2022/05/21 00:41:18;;;;;;;9.48;3.83;;;;;;;15.15;49.38;95346.81;5070426;28;20207;-64
2022/05/21 00:43:58;;;;;;;6.35;3.97;;;;;;;15.23;49.40;95340.66;5071224;28;20696;-66
2022/05/21 00:46:24;;;;;;;14.38;3.70;;;;;;;15.20;49.35;95335.72;5073135;28;20306;-65
2022/05/21 00:49:10;;;;;;;10.32;3.95;;;;;;;15.16;48.61;95337.91;5056311;28;20217;-65
2022/05/21 00:51:44;;;;;;;9.00;3.13;;;;;;;15.11;48.56;95332.28;5087693;28;20220;-65
2022/05/21 00:54:11;;;;;;;8.93;3.80;;;;;;;15.09;48.72;95333.44;5087373;28;20252;-64
2022/05/21 00:56:44;;;;;;;7.72;4.13;;;;;;;15.15;48.54;95335.41;5069630;28;20748;-66
2022/05/21 01:01:59;;;;;;;8.95;3.70;;;;;;;15.08;48.09;95329.16;5082969;28;20228;-66
2022/05/21 01:04:25;;;;;;;6.60;3.15;;;;;;;15.03;48.38;95323.56;5072934;28;20216;-60
2022/05/21 01:06:53;;;;;;;8.57;3.53;;;;;;;14.95;48.53;95324.41;5070119;28;20365;-64
2022/05/21 01:09:21;;;;;;;7.43;3.33;;;;;;;14.90;48.33;95319.63;5071595;28;20555;-65
2022/05/21 01:11:47;;;;;;;7.20;3.58;;;;;;;14.69;48.26;95314.88;5071675;28;20216;-61
2022/05/21 01:14:17;;;;;;;7.05;3.45;;;;;;;14.69;48.38;95327.28;5068086;28;20208;-67
2022/05/21 01:16:44;;;;;;;8.20;3.30;;;;;;;14.72;47.71;95319.81;5083591;28;20212;-61
2022/05/21 01:19:10;;;;;;;5.82;3.30;;;;;;;14.59;48.23;95321.34;5073015;28;20243;-60
2022/05/21 01:21:37;;;;;;;3.70;2.83;;;;;;;14.66;47.76;95317.03;5086561;28;20223;-67
2022/05/21 01:24:08;;;;;;;6.13;2.92;;;;;;;14.62;48.50;95316.56;5083158;28;20223;-67
2022/05/21 01:26:35;;;;;;;8.38;3.28;;;;;;;14.50;48.94;95321.34;5070704;28;20204;-66
2022/05/21 01:29:11;;;;;;;7.10;3.35;;;;;;;14.32;50.03;95326.81;5071909;28;20240;-66
2022/05/21 01:31:37;;;;;;;5.30;3.15;;;;;;;14.37;50.07;95328.97;5063367;28;20224;-67
2022/05/21 01:34:03;;;;;;;6.43;2.70;;;;;;;14.26;50.00;95326.66;5066721;28;20224;-66
2022/05/21 01:36:28;;;;;;;5.72;2.90;;;;;;;14.30;49.44;95323.53;5068318;28;20244;-67
2022/05/21 01:38:54;;;;;;;6.53;2.78;;;;;;;14.43;49.64;95317.72;5086736;28;20224;-66
2022/05/21 01:41:19;;;;;;;7.57;3.22;;;;;;;14.48;50.01;95319.84;5089932;28;20232;-61
2022/05/21 01:46:28;;;;;;;4.97;2.85;;;;;;;14.31;48.90;95319.06;5089407;28;20297;-64
2022/05/21 01:48:54;;;;;;;8.88;2.90;;;;;;;14.17;50.29;95317.09;5071347;28;20235;-66
2022/05/21 01:51:20;;;;;;;6.18;3.40;;;;;;;14.10;51.49;95332.78;5068417;28;20216;-66
2022/05/21 01:53:46;;;;;;;7.70;3.17;;;;;;;13.66;53.74;95319.91;5070832;28;20224;-67
2022/05/21 01:56:13;;;;;;;5.00;3.13;;;;;;;13.79;53.24;95317.59;5080323;28;20224;-64
2022/05/21 01:58:40;;;;;;;4.95;3.13;;;;;;;13.84;52.67;95317.09;5054601;28;20231;-66
2022/05/21 02:01:07;;;;;;;8.13;3.42;;;;;;;13.94;51.86;95322.22;5075645;28;20208;-67
2022/05/21 02:03:32;;;;;;;9.38;3.55;;;;;;;13.89;51.56;95298.91;5071657;28;20220;-67
2022/05/21 02:05:58;;;;;;;8.65;2.70;;;;;;;13.88;51.77;95298.09;5062447;28;20216;-61
2022/05/21 02:08:23;;;;;;;7.10;3.30;;;;;;;13.98;52.51;95305.88;5068688;28;20231;-67
2022/05/21 02:10:50;;;;;;;9.55;3.33;;;;;;;13.92;52.39;95303.88;5080596;28;20517;-67
2022/05/21 02:13:23;;;;;;;5.45;3.03;;;;;;;13.84;52.71;95296.75;5067975;28;20220;-67
2022/05/21 02:15:48;;;;;;;4.82;3.15;;;;;;;13.72;53.17;95292.00;5067781;28;20970;-67
2022/05/21 02:18:14;;;;;;;5.93;3.10;;;;;;;13.74;53.42;95284.69;5071985;28;20215;-61
2022/05/21 02:20:40;;;;;;;3.65;2.88;;;;;;;13.78;53.02;95292.13;5074420;28;20281;-61
2022/05/21 02:23:06;;;;;;;5.45;3.20;;;;;;;13.81;52.59;95283.06;5068148;28;20222;-67
2022/05/21 02:25:31;;;;;;;5.65;2.85;;;;;;;13.78;52.32;95288.69;5070570;28;20223;-65
2022/05/21 02:27:57;;;;;;;9.23;3.40;;;;;;;13.77;53.10;95282.56;5070616;28;20224;-67
2022/05/21 02:30:23;;;;;;;12.70;3.55;;;;;;;13.72;53.15;95286.69;5083555;28;20216;-65
2022/05/21 02:32:49;;;;;;;11.38;4.25;;;;;;;13.80;52.93;95281.41;5068091;28;20246;-62
2022/05/21 02:35:14;;;;;;;3.50;3.15;;;;;;;13.56;52.55;95280.41;5057575;28;20207;-62
2022/05/21 02:40:25;;;;;;;4.43;2.20;;;;;;;13.31;50.73;95286.63;5085054;28;20234;-66
2022/05/21 02:42:51;;;;;;;5.05;2.30;;;;;;;13.22;49.57;95277.84;5071179;28;20228;-62
2022/05/21 02:45:20;;;;;;;3.75;2.00;;;;;;;13.22;48.90;95278.66;5085653;28;20219;-66
2022/05/21 02:47:47;;;;;;;4.25;2.30;;;;;;;13.23;49.11;95276.84;5080503;28;20228;-62
2022/05/21 02:50:15;;;;;;;5.43;2.60;;;;;;;13.27;49.19;95280.03;5071298;28;20208;-68
2022/05/21 02:52:41;;;;;;;4.97;2.50;;;;;;;13.24;49.44;95286.44;5068866;28;20216;-67
2022/05/21 02:55:08;;;;;;;7.07;2.45;;;;;;;13.21;48.66;95279.66;5077401;28;20216;-60
2022/05/21 02:57:36;;;;;;;4.60;2.58;;;;;;;13.35;48.14;95285.31;5070453;28;20224;-65
2022/05/21 03:00:28;;;;;;;5.75;3.08;;;;;;;13.38;47.44;95290.28;5087179;28;20242;-65
2022/05/21 03:02:55;;;;;;;7.85;3.08;;;;;;;13.31;48.44;95297.19;5068181;28;20307;-65
2022/05/21 03:05:21;;;;;;;2.80;2.30;;;;;;;13.25;48.88;95291.53;5070383;28;20294;-67
2022/05/21 03:07:50;;;;;;;4.35;2.20;;;;;;;13.32;49.00;95301.50;5073250;28;20211;-66
2022/05/21 03:10:22;;;;;;;6.97;2.80;;;;;;;13.23;51.45;95304.09;5085447;28;20226;-61
2022/05/21 03:13:07;;;;;;;9.93;3.30;;;;;;;13.29;51.84;95307.13;5086474;28;20220;-67
2022/05/21 03:15:36;;;;;;;11.18;4.60;;;;;;;13.08;52.64;95307.50;5068831;28;20224;-65
2022/05/21 03:18:04;;;;;;;10.60;5.32;;;;;;;13.13;53.01;95308.69;5067977;28;20300;-60
2022/05/21 03:20:30;;;;;;;10.77;6.47;;;;;;;13.13;52.75;95303.41;5054130;28;20209;-65
2022/05/21 03:22:55;;;;;;;14.27;6.82;;;;;;;13.02;53.28;95303.69;5066385;28;20280;-66
2022/05/21 03:25:23;;;;;;;10.55;4.38;;;;;;;13.27;51.90;95309.06;5067597;28;20252;-65
2022/05/21 03:27:49;;;;;;;10.52;4.50;;;;;;;13.30;52.49;95308.75;5071027;28;20327;-67
2022/05/21 03:30:20;;;;;;;8.32;4.25;;;;;;;13.17;53.00;95298.59;5091533;28;20303;-66
2022/05/21 03:32:46;;;;;;;8.05;4.20;;;;;;;13.21;52.55;95282.28;5071129;28;20224;-67
2022/05/21 03:35:13;;;;;;;11.90;3.60;;;;;;;13.20;52.21;95290.38;5064895;28;20204;-68
2022/05/21 03:37:39;;;;;;;8.38;3.80;;;;;;;13.23;52.76;95284.75;5056741;28;20260;-67
2022/05/21 03:40:07;;;;;;;5.97;3.10;;;;;;;13.41;52.02;95287.31;5062189;28;20318;-67
2022/05/21 03:42:32;;;;;;;9.13;3.42;;;;;;;13.46;52.06;95291.13;5079966;28;20235;-65
2022/05/21 03:44:58;;;;;;;8.30;3.47;;;;;;;13.39;52.53;95302.50;5066483;28;20227;-66
2022/05/21 03:47:23;;;;;;;11.13;2.90;;;;;;;13.34;51.55;95297.72;5076536;28;20200;-67
2022/05/21 03:49:49;;;;;;;4.90;3.00;;;;;;;13.36;51.19;95298.34;5060971;28;20207;-65
2022/05/21 03:52:14;;;;;;;8.40;3.70;;;;;;;13.39;50.89;95302.50;5082602;28;20247;-61
2022/05/21 03:54:40;;;;;;;8.35;4.10;;;;;;;13.46;51.36;95308.78;5069041;28;20228;-61
2022/05/21 03:57:06;;;;;;;8.48;4.03;;;;;;;13.30;52.61;95314.84;5077221;28;20251;-67
2022/05/21 03:59:33;;;;;;;13.60;5.05;;;;;;;12.50;55.34;95316.97;5051343;28;20215;-67
2022/05/21 04:01:58;;;;;;;12.15;5.05;;;;;;;12.14;56.50;95309.16;5069318;28;20215;-69
2022/05/21 04:04:24;;;;;;;8.80;4.45;;;;;;;12.41;56.07;95323.19;5073071;28;20224;-69
2022/05/21 04:06:49;;;;;;;8.98;4.70;;;;;;;12.93;54.80;95331.03;5054727;28;20235;-67
2022/05/21 04:09:15;;;;;;;6.15;3.83;;;;;;;13.04;54.38;95330.75;5064089;28;20289;-63
2022/05/21 04:11:40;;;;;;;13.13;4.85;;;;;;;13.04;54.57;95328.09;5071597;28;20318;-67
2022/05/21 04:14:07;;;;;;;7.57;4.15;;;;;;;13.17;53.96;95332.94;5072325;28;20205;-68
2022/05/21 04:16:33;;;;;;;8.30;4.10;;;;;;;13.18;54.03;95327.50;5068671;28;20227;-62
2022/05/21 04:18:59;;;;;;;5.60;3.67;;;;;;;13.44;53.04;95327.47;5071684;28;20384;-61
2022/05/21 04:21:26;;;;;;;6.57;3.45;;;;;;;13.57;52.18;95331.41;5076111;28;20224;-65
2022/05/21 04:23:52;;;;;;;9.05;3.78;;;;;;;13.62;52.00;95329.13;5073716;28;20231;-66
2022/05/21 04:26:17;;;;;;;6.22;3.60;;;;;;;13.80;51.63;95329.00;5062947;28;20196;-65
2022/05/21 04:28:43;;;;;;;7.13;3.95;;;;;;;13.90;51.12;95329.66;5072324;28;20208;-62
2022/05/21 04:31:08;;;;;;;5.65;3.30;;;;;;;13.96;49.89;95321.06;5072569;28;20253;-61
2022/05/21 04:33:33;;;;;;;6.30;3.05;;;;;;;14.07;48.47;95322.56;5070423;28;20532;-67
2022/05/21 04:38:43;;;;;;;8.88;4.25;;;;;;;13.95;49.65;95329.97;5076013;28;20307;-65
2022/05/21 04:41:10;;;;;;;3.83;3.30;;;;;;;13.87;50.10;95328.19;5081873;28;20315;-66
2022/05/21 04:43:36;;;;;;;8.48;3.47;;;;;;;14.00;50.47;95321.56;5071047;28;20225;-62
2022/05/21 04:46:02;;;;;;;7.70;4.28;;;;;;;14.12;50.57;95322.88;5071502;28;20247;-66
2022/05/21 04:48:28;;;;;;;6.72;3.55;;;;;;;14.16;50.50;95328.66;5073010;28;20219;-69
2022/05/21 04:50:58;;;;;;;3.63;3.17;;;;;;;14.31;50.72;95329.66;5072410;28;20232;-67
2022/05/21 04:53:24;;;;;;;6.00;3.90;;;;;;;14.36;50.36;95339.75;5066379;28;20207;-64
2022/05/21 04:55:49;;;;;;;5.85;3.92;;;;;;;14.43;50.26;95330.94;5078206;28;20195;-66
2022/05/21 04:58:15;;;;;;;6.32;3.70;;;;;;;14.61;49.53;95335.25;5073208;28;20229;-69
2022/05/21 05:00:40;;;;;;;6.80;3.28;;;;;;;14.70;47.98;95340.38;5057402;28;20602;-66
2022/05/21 05:03:14;;;;;;;8.50;4.18;;;;;;;14.58;48.41;95331.13;5083849;28;20231;-67
2022/05/21 05:05:40;;;;;;;10.27;4.20;;;;;;;14.51;48.40;95330.94;5065963;28;20227;-67
2022/05/21 05:08:06;;;;;;;10.95;4.25;;;;;;;14.70;47.43;95342.16;5069040;28;20204;-62
2022/05/21 05:10:36;;;;;;;8.15;3.78;;;;;;;14.66;46.83;95338.22;5083891;28;20343;-63
2022/05/21 05:13:02;;;;;;;3.88;3.10;;;;;;;14.69;46.19;95335.22;5077252;28;20228;-65
2022/05/21 05:15:28;;;;;;;5.60;3.08;;;;;;;14.81;45.97;95333.88;5087487;28;20220;-66
2022/05/21 05:18:05;;;;;;;5.88;3.88;;;;;;;14.69;45.85;95324.63;5075070;28;20221;-69
2022/05/21 05:20:31;;;;;;;6.20;3.30;;;;;;;14.91;45.27;95336.31;5072040;28;20205;-63
2022/05/21 05:22:57;;;;;;;4.35;2.67;;;;;;;14.94;45.58;95339.47;5072724;28;20216;-65
2022/05/21 05:25:23;;;;;;;4.43;2.38;;;;;;;15.02;44.84;95328.00;5088201;28;20234;-62
2022/05/21 05:27:49;;;;;;;4.03;2.42;;;;;;;15.12;43.67;95330.44;5084367;28;20223;-61
2022/05/21 05:30:17;;;;;;;2.92;1.90;;;;;;;15.24;43.30;95320.31;5074330;28;20240;-63
2022/05/21 05:32:43;;;;;;;4.38;1.90;;;;;;;15.31;41.97;95319.44;5074385;28;20229;-66
2022/05/21 05:35:09;;;;;;;4.47;1.67;;;;;;;15.33;42.01;95314.78;5083922;28;20261;-65
2022/05/21 05:37:35;;;;;;;3.50;1.73;;;;;;;15.31;41.66;95310.66;5066126;28;20593;-65
2022/05/21 05:40:01;;;;;;;4.57;1.90;;;;;;;15.39;41.03;95311.44;5053073;28;20222;-61
2022/05/21 05:42:26;;;;;;;3.90;1.73;;;;;;;15.30;41.69;95306.38;5046506;28;20311;-62
2022/05/21 05:44:52;;;;;;;6.45;2.20;;;;;;;15.33;42.13;95309.50;5053062;28;20243;-63
2022/05/21 05:47:17;;;;;;;4.72;2.20;;;;;;;15.09;43.43;95306.97;5052073;28;20197;-63
2022/05/21 05:49:43;;;;;;;5.35;2.10;;;;;;;15.34;43.59;95299.72;5059435;28;20279;-65
2022/05/21 05:52:09;;;;;;;3.60;2.00;;;;;;;15.60;43.16;95304.69;5069013;28;20763;-66
2022/05/21 05:54:35;;;;;;;5.70;2.20;;;;;;;15.70;42.86;95304.50;5052446;28;20689;-61
2022/05/21 05:57:02;;;;;;;2.30;2.08;;;;;;;15.52;43.32;95302.09;5053032;28;20217;-64
2022/05/21 06:04:55;;;;;;;3.53;2.10;;;;;;;15.86;40.72;95288.47;5083889;28;20247;-63
2022/05/21 06:07:22;;;;;;;2.38;2.00;;;;;;;15.92;40.86;95286.94;5077001;28;20221;-66
2022/05/21 06:09:48;;;;;;;3.15;1.75;;;;;;;15.73;41.20;95283.75;5071405;28;20235;-63
2022/05/21 06:12:14;;;;;;;5.30;2.10;;;;;;;16.00;40.62;95284.22;5077123;28;20232;-67
2022/05/21 06:14:41;;;;;;;6.43;2.05;;;;;;;16.00;40.78;95282.38;5085898;28;20294;-63
2022/05/21 06:17:07;;;;;;;3.13;1.95;;;;;;;16.37;40.12;95272.78;5074159;28;20285;-62
2022/05/21 06:19:33;;;;;;;5.18;2.00;;;;;;;16.29;40.10;95273.66;5054112;28;20308;-66
2022/05/21 06:22:02;;;;;;;4.35;1.80;;;;;;;16.19;40.29;95270.44;5065290;28;20224;-66
2022/05/21 06:24:28;;;;;;;4.90;2.10;;;;;;;16.23;39.92;95269.09;5057531;28;20246;-66
2022/05/21 06:26:54;;;;;;;4.93;1.90;;;;;;;16.17;40.18;95272.47;5072310;28;20223;-68
2022/05/21 06:29:20;;;;;;;4.53;1.90;;;;;;;16.34;39.90;95264.34;5078940;28;20198;-68
2022/05/21 06:31:46;;;;;;;5.80;2.70;;;;;;;16.47;39.71;95262.72;5077861;28;20242;-69
2022/05/21 06:34:11;;;;;;;26.45;8.57;;;;;;;16.43;40.21;95250.81;5073271;28;20265;-69
2022/05/21 06:36:37;;;;;;;6.70;2.72;;;;;;;16.58;40.58;95253.47;5070108;28;20233;-69
2022/05/21 06:39:03;;;;;;;4.90;2.45;;;;;;;16.66;40.22;95253.38;5072881;28;20227;-66
2022/05/21 06:41:31;;;;;;;6.88;2.45;;;;;;;16.69;40.10;95249.53;5090440;28;20726;-68
2022/05/21 06:43:57;;;;;;;6.00;2.40;;;;;;;16.76;40.10;95238.00;5073684;28;20207;-66
2022/05/21 06:46:23;;;;;;;6.78;2.50;;;;;;;16.90;39.99;95233.72;5068365;28;20239;-65
2022/05/21 06:48:49;;;;;;;3.00;2.30;;;;;;;16.93;40.38;95230.69;5094408;28;20227;-61
2022/05/21 06:51:15;;;;;;;6.70;2.85;;;;;;;16.98;41.36;95230.94;5090088;28;20242;-65
2022/05/21 06:53:40;;;;;;;7.47;3.10;;;;;;;17.00;41.40;95225.47;5088768;28;20228;-65
2022/05/21 06:56:12;;;;;;;7.75;2.80;;;;;;;17.03;40.31;95222.44;5072708;28;20231;-67
2022/05/21 06:58:38;;;;;;;6.38;2.95;;;;;;;17.14;39.81;95221.13;5080825;28;20223;-68
2022/05/21 07:01:04;;;;;;;6.47;3.00;;;;;;;17.13;40.87;95216.78;5068687;28;20216;-67
2022/05/21 07:03:30;;;;;;;5.90;3.38;;;;;;;17.18;40.74;95220.53;5080865;28;20230;-66
2022/05/21 07:08:39;;;;;;;6.30;3.15;;;;;;;17.26;40.10;95205.50;5079478;28;20231;-61
2022/05/21 07:11:06;;;;;;;7.40;2.67;;;;;;;17.34;40.09;95208.84;5076267;28;20291;-64
2022/05/21 07:13:32;;;;;;;6.93;2.80;;;;;;;17.42;40.26;95214.03;5068899;28;20256;-62
2022/05/21 07:15:58;;;;;;;5.30;2.90;;;;;;;17.38;39.14;95210.13;5075137;28;20251;-61
2022/05/21 07:18:26;;;;;;;5.00;2.90;;;;;;;17.49;38.50;95205.34;5089689;28;20216;-61
2022/05/21 07:20:53;;;;;;;5.25;2.40;;;;;;;17.55;38.27;95204.56;5088722;28;20458;-61
2022/05/21 07:23:20;;;;;;;6.18;2.83;;;;;;;17.69;38.00;95201.00;5069608;28;20220;-62
2022/05/21 07:25:47;;;;;;;6.43;2.88;;;;;;;17.69;38.97;95202.84;5075895;28;20262;-68
2022/05/21 07:28:14;;;;;;;6.85;3.25;;;;;;;17.68;39.10;95191.38;5070810;28;20277;-68
2022/05/21 07:30:42;;;;;;;9.20;3.33;;;;;;;17.81;39.23;95186.22;5067883;28;20280;-61
2022/05/21 07:33:17;;;;;;;4.80;2.78;;;;;;;17.79;39.79;95187.41;5091016;28;20223;-67
2022/05/21 07:35:44;;;;;;;5.22;2.65;;;;;;;17.88;39.62;95190.75;5064994;28;20220;-66
2022/05/21 07:38:11;;;;;;;6.43;3.03;;;;;;;17.95;39.73;95187.13;5073074;28;20200;-66
2022/05/21 07:40:38;;;;;;;5.07;3.10;;;;;;;18.03;39.26;95181.66;5072413;28;20283;-62
2022/05/21 07:43:13;;;;;;;5.75;2.97;;;;;;;18.05;39.66;95174.31;5065670;28;20223;-61
2022/05/21 07:45:39;;;;;;;8.77;3.60;;;;;;;18.16;39.64;95177.47;5073967;28;20297;-67
2022/05/21 07:48:13;;;;;;;8.98;3.83;;;;;;;18.25;39.31;95186.94;5070493;28;20220;-70
2022/05/21 07:50:40;;;;;;;8.23;3.97;;;;;;;18.38;39.43;95173.69;5072588;28;20231;-69
2022/05/21 07:53:14;;;;;;;8.82;4.38;;;;;;;18.40;39.32;95178.84;5085466;28;20204;-61
2022/05/21 07:55:44;;;;;;;10.80;3.58;;;;;;;18.36;38.73;95167.75;5067497;28;20204;-68
2022/05/21 07:58:13;;;;;;;6.80;3.70;;;;;;;18.44;38.81;95164.09;5068445;28;20226;-64
2022/05/21 08:00:39;;;;;;;7.55;3.30;;;;;;;18.42;38.08;95174.16;5068526;28;20228;-61
2022/05/21 08:03:04;;;;;;;6.70;3.53;;;;;;;18.42;38.04;95161.66;5066911;28;20320;-66
2022/05/21 08:05:30;;;;;;;8.30;3.65;;;;;;;18.58;38.22;95151.66;5068421;28;20235;-62
2022/05/21 08:07:59;;;;;;;9.57;5.47;;;;;;;18.67;38.24;95155.81;5071310;28;20204;-66
2022/05/21 08:10:24;;;;;;;7.68;4.20;;;;;;;18.71;37.89;95154.38;5071938;28;20217;-67
2022/05/21 08:12:51;;;;;;;10.70;5.70;;;;;;;18.71;38.47;95141.91;5065539;28;20223;-66
2022/05/21 08:15:17;;;;;;;11.40;4.25;;;;;;;18.88;38.60;95142.41;5068724;28;20227;-63
2022/05/21 08:17:43;;;;;;;5.25;3.65;;;;;;;18.94;37.59;95138.13;5069982;28;20243;-66
2022/05/21 08:20:11;;;;;;;7.28;3.45;;;;;;;19.00;38.22;95129.31;5067113;28;20253;-63
2022/05/21 08:28:06;;;;;;;8.38;4.47;;;;;;;19.25;39.20;95134.94;5080927;28;20365;-65
2022/05/21 08:30:32;;;;;;;9.98;3.63;;;;;;;19.20;38.45;95113.38;5071778;28;20235;-61
2022/05/21 08:33:06;;;;;;;7.03;3.38;;;;;;;19.38;37.73;95132.28;5065671;28;20304;-67
2022/05/21 08:35:32;;;;;;;7.82;3.63;;;;;;;19.40;39.02;95134.72;5067700;28;20586;-65
2022/05/21 08:37:58;;;;;;;6.65;3.22;;;;;;;19.47;38.47;95134.75;5065436;28;20228;-62
2022/05/21 08:40:27;;;;;;;4.85;3.28;;;;;;;19.55;37.78;95134.53;5084238;28;20227;-66
2022/05/21 08:42:58;;;;;;;7.80;3.78;;;;;;;19.61;38.79;95141.72;5060280;28;20598;-62
2022/05/21 08:45:55;;;;;;;8.35;3.30;;;;;;;19.63;36.96;95126.34;5088383;28;20250;-61
2022/05/21 08:48:20;;;;;;;4.90;3.00;;;;;;;19.68;37.62;95121.25;5080084;28;20223;-65
2022/05/21 08:50:51;;;;;;;10.63;3.55;;;;;;;19.73;38.83;95120.63;5066709;28;20216;-66
2022/05/21 08:53:20;;;;;;;8.00;3.33;;;;;;;19.77;39.60;95108.50;5090844;28;20212;-67
2022/05/21 08:55:50;;;;;;;7.35;3.65;;;;;;;19.91;37.72;95115.47;5069253;28;20228;-68
2022/05/21 08:58:16;;;;;;;7.80;3.70;;;;;;;19.98;38.19;95115.47;5068704;28;20223;-66
2022/05/21 09:00:44;;;;;;;5.40;3.67;;;;;;;20.30;36.46;95119.09;5062799;28;20227;-65
2022/05/21 09:03:13;;;;;;;5.90;3.78;;;;;;;20.25;37.04;95117.03;5089613;28;20230;-66
2022/05/21 09:05:44;;;;;;;7.32;4.07;;;;;;;20.31;36.68;95109.22;5060367;28;20251;-66
2022/05/21 09:08:16;;;;;;;7.35;3.55;;;;;;;20.39;35.40;95107.13;5061752;28;20242;-67
2022/05/21 09:11:11;;;;;;;5.82;3.28;;;;;;;20.34;35.36;95104.31;5076587;28;20237;-68
2022/05/21 09:13:47;;;;;;;9.02;4.60;;;;;;;20.46;38.44;95107.13;5082421;28;20215;-67
2022/05/21 09:19:08;;;;;;;8.45;3.60;;;;;;;20.93;34.73;95107.78;5090388;28;20265;-61
2022/05/21 09:21:38;;;;;;;9.90;3.83;;;;;;;20.96;35.27;95107.38;5075999;28;20223;-67
2022/05/21 09:24:04;;;;;;;6.03;3.33;;;;;;;21.17;35.13;95110.72;5091310;28;20247;-68
2022/05/21 09:26:51;;;;;;;8.20;3.33;;;;;;;21.42;34.74;95108.94;5075788;28;20265;-64
2022/05/21 09:29:21;;;;;;;4.82;3.10;;;;;;;21.50;35.33;95108.69;5072829;28;20207;-67
2022/05/21 09:31:47;;;;;;;6.38;2.92;;;;;;;21.65;34.64;95100.34;5066610;28;20192;-64
2022/05/21 09:34:29;;;;;;;5.47;3.25;;;;;;;21.73;32.49;95092.03;5073026;28;20223;-68
2022/05/21 09:36:56;;;;;;;8.25;3.75;;;;;;;21.92;32.23;95094.72;5079912;28;20251;-64
2022/05/21 09:39:38;;;;;;;5.50;2.85;;;;;;;22.00;31.01;95087.25;5072259;28;20270;-67
2022/05/21 09:45:23;;;;;;;5.20;2.35;;;;;;;22.42;30.73;95084.75;5083496;28;20303;-67
2022/05/21 09:47:49;;;;;;;6.60;2.42;;;;;;;22.57;29.54;95081.72;5070472;28;20219;-66
2022/05/21 09:50:21;;;;;;;6.20;2.67;;;;;;;22.74;28.33;95078.41;5074210;28;20219;-65
2022/05/21 09:52:49;;;;;;;3.63;2.13;;;;;;;22.86;27.10;95088.16;5076250;28;20220;-69
2022/05/21 09:55:21;;;;;;;2.72;2.22;;;;;;;23.02;27.29;95078.69;5097300;28;20745;-69
2022/05/21 09:57:47;;;;;;;4.47;2.50;;;;;;;23.09;26.99;95074.06;5056336;28;20228;-62
2022/05/21 10:00:24;;;;;;;6.45;2.47;;;;;;;23.36;26.85;95081.69;5071405;28;20225;-66
2022/05/21 10:02:53;;;;;;;4.95;2.25;;;;;;;23.43;27.44;95069.00;5094102;28;20222;-64
2022/05/21 10:05:26;;;;;;;4.03;1.88;;;;;;;23.66;25.72;95075.47;5064801;28;20200;-62
2022/05/21 10:11:10;;;;;;;4.88;2.42;;;;;;;23.99;25.92;95059.59;5093003;28;20230;-64
2022/05/21 10:13:44;;;;;;;4.22;2.22;;;;;;;24.24;26.01;95050.47;5070858;28;20223;-67
2022/05/21 10:16:32;;;;;;;3.40;1.88;;;;;;;24.51;25.26;95048.13;5068428;28;20221;-62
2022/05/21 10:19:10;;;;;;;4.00;1.80;;;;;;;24.74;24.84;95043.72;5061189;28;20239;-65
2022/05/21 10:21:53;;;;;;;4.10;2.00;;;;;;;24.81;25.20;95036.34;5057306;28;20222;-68
2022/05/21 10:24:29;;;;;;;3.72;1.92;;;;;;;25.01;25.83;95033.19;5081473;28;20220;-69
2022/05/21 10:27:13;;;;;;;3.65;2.15;;;;;;;25.36;25.64;95038.41;5071927;28;20323;-68
2022/05/21 10:29:44;;;;;;;3.13;2.10;;;;;;;25.57;25.25;95025.28;5060442;28;20216;-62
2022/05/21 10:32:31;;;;;;;2.60;1.90;;;;;;;25.64;24.68;95023.25;5075714;28;20293;-67
2022/05/21 10:34:56;;;;;;;3.17;2.28;;;;;;;25.71;24.25;95031.97;5079448;28;20227;-62
2022/05/21 10:37:24;;;;;;;6.10;1.98;;;;;;;25.60;22.74;95022.09;5076592;28;20231;-65
2022/05/21 10:40:11;;;;;;;2.25;1.70;;;;;;;25.67;23.49;95028.13;5073325;28;20228;-61
2022/05/21 10:43:06;;;;;;;2.30;2.05;;;;;;;25.70;23.89;95023.06;5066850;28;20215;-68
2022/05/21 10:45:36;;;;;;;3.88;2.00;;;;;;;25.82;23.64;95028.38;5079630;28;20221;-64
2022/05/21 10:48:37;;;;;;;2.85;2.00;;;;;;;25.85;22.01;95019.84;5073816;28;20227;-69
2022/05/21 10:51:39;;;;;;;2.22;1.85;;;;;;;25.97;22.94;95017.03;5054075;28;20276;-69
2022/05/21 10:54:29;;;;;;;5.47;2.60;;;;;;;26.07;21.34;94998.31;5083831;28;20705;-65
2022/05/21 10:57:21;;;;;;;3.60;2.00;;;;;;;26.17;20.80;94998.44;5057937;28;20223;-68
2022/05/21 10:59:49;;;;;;;2.88;1.80;;;;;;;26.23;20.46;94993.94;5087505;28;20687;-61
2022/05/21 11:02:40;;;;;;;2.40;1.90;;;;;;;26.26;20.51;94993.44;5072326;28;20310;-68
2022/05/21 11:05:30;;;;;;;2.13;1.90;;;;;;;26.32;21.64;94981.63;5085594;28;20231;-62
2022/05/21 11:08:11;;;;;;;3.50;2.00;;;;;;;26.54;21.76;94970.88;5060033;28;20481;-70
2022/05/21 11:10:48;;;;;;;3.85;2.00;;;;;;;26.75;21.58;94969.19;5061200;28;20278;-67
2022/05/21 11:13:19;;;;;;;2.08;1.80;;;;;;;26.75;20.33;94963.00;5084273;28;20224;-69
2022/05/21 11:15:54;;;;;;;5.45;1.80;;;;;;;26.76;19.84;94951.16;5066418;28;20291;-66
2022/05/21 11:19:01;;;;;;;3.80;1.90;;;;;;;26.86;20.21;94942.31;5071332;28;20454;-69
2022/05/21 11:21:34;;;;;;;3.38;1.77;;;;;;;26.91;19.15;94940.50;4997530;28;20287;-67
2022/05/21 11:24:08;;;;;;;3.70;1.52;;;;;;;26.98;18.81;94940.28;5018368;28;20316;-62
2022/05/21 11:26:41;;;;;;;2.58;1.50;;;;;;;27.10;19.26;94943.63;5012919;28;20219;-67
2022/05/21 11:29:26;;;;;;;2.85;1.70;;;;;;;27.14;20.77;94933.16;4995591;28;20209;-69
2022/05/21 11:37:47;;;;;;;3.33;1.73;;;;;;;27.65;19.15;94923.53;5008311;28;20280;-63
2022/05/21 11:41:24;;;;;;;2.47;2.10;;;;;;;27.49;19.74;94924.53;5014011;28;20229;-66
2022/05/21 11:43:54;;;;;;;2.97;1.60;;;;;;;27.72;21.01;94915.22;5016255;28;20276;-61
2022/05/21 11:46:34;;;;;;;2.20;2.00;;;;;;;27.84;20.65;94915.84;5011319;28;20252;-66
2022/05/21 11:49:25;;;;;;;2.30;1.80;;;;;;;28.06;20.55;94912.16;5009118;28;20230;-63
2022/05/21 11:51:50;;;;;;;4.30;2.28;;;;;;;28.20;20.31;94902.50;5015486;28;20236;-68
2022/05/21 11:54:47;;;;;;;3.95;2.13;;;;;;;28.31;20.81;94903.34;5070184;28;20231;-65
2022/05/21 11:57:45;;;;;;;2.58;2.03;;;;;;;28.37;19.78;94902.25;5075196;28;20220;-66
2022/05/21 12:00:17;;;;;;;3.00;1.90;;;;;;;28.48;19.10;94903.94;5088382;28;20216;-67
2022/05/21 12:02:54;;;;;;;1.90;1.63;;;;;;;28.66;19.84;94907.25;5058620;28;20219;-65
2022/05/21 12:05:49;;;;;;;2.80;1.83;;;;;;;29.11;19.53;94894.81;5069229;28;20463;-66
2022/05/21 12:08:16;;;;;;;2.45;2.03;;;;;;;29.01;19.12;94899.16;5076819;28;20225;-68
2022/05/21 12:11:04;;;;;;;2.25;1.80;;;;;;;29.06;18.94;94892.97;5082464;28;20228;-64
2022/05/21 12:13:33;;;;;;;3.15;1.80;;;;;;;28.84;18.61;94890.47;5079308;28;20227;-62
2022/05/21 12:16:20;;;;;;;2.63;1.77;;;;;;;29.09;17.99;94895.13;5072146;28;20239;-62
2022/05/21 12:18:54;;;;;;;1.90;1.70;;;;;;;29.26;18.08;94892.13;5007180;28;20211;-65
2022/05/21 12:21:38;;;;;;;3.53;1.98;;;;;;;29.37;18.71;94879.38;4995786;28;20230;-64
2022/05/21 12:24:04;;;;;;;5.00;2.45;;;;;;;29.60;19.41;94875.28;5011304;28;20770;-68
2022/05/21 12:26:40;;;;;;;4.68;2.85;;;;;;;29.73;18.53;94879.34;5010411;28;20203;-62